Time;durP1;ratioP1;P1;durP2;ratioP2;P2;SDS_P1;SDS_P2;PMS_P1;PMS_P2;Temp;Humidity;BMP_temperature;BMP_pressure;BME280_temperature;BME280_humidity;BME280_pressure;Samples;Min_cycle;Max_cycle;Signal;HPM_P1;HPM_P2
2023/03/28 00:02:55;;;;;;;26.40;11.73;;;14.60;64.20;;;;;;10204830;29;20732;-89
2023/03/28 00:07:58;;;;;;;24.93;10.40;;;14.30;56.10;;;;;;10203897;29;20337;-89
2023/03/28 00:13:01;;;;;;;16.73;8.73;;;13.90;62.50;;;;;;10204598;29;20312;-89
2023/03/28 00:18:04;;;;;;;15.83;9.20;;;13.00;58.20;;;;;;10212476;29;20793;-88
2023/03/28 00:23:08;;;;;;;16.30;8.87;;;12.50;65.30;;;;;;10209331;29;20271;-89
2023/03/28 00:28:11;;;;;;;24.90;11.40;;;12.20;61.50;;;;;;10210743;29;20371;-90
2023/03/28 00:33:14;;;;;;;22.20;8.67;;;11.70;74.30;;;;;;10210005;29;20243;-90
2023/03/28 00:38:17;;;;;;;18.83;10.27;;;12.30;82.10;;;;;;10210421;29;20322;-88
2023/03/28 00:43:41;;;;;;;25.87;11.83;;;12.40;73.70;;;;;;10209660;29;20246;-89
2023/03/28 00:48:58;;;;;;;21.37;10.10;;;12.70;73.60;;;;;;10210072;29;20675;-89
2023/03/28 00:54:03;;;;;;;13.40;7.10;;;12.80;74.50;;;;;;10211599;29;20234;-89
2023/03/28 00:59:10;;;;;;;15.43;7.53;;;12.30;66.30;;;;;;10209642;29;20242;-88
2023/03/28 01:04:19;;;;;;;20.63;10.67;;;12.50;74.50;;;;;;10208722;29;20242;-89
2023/03/28 01:09:24;;;;;;;20.93;10.03;;;12.20;72.00;;;;;;10208456;29;20266;-89
2023/03/28 01:14:29;;;;;;;21.40;10.60;;;11.80;82.00;;;;;;10207853;29;20257;-89
2023/03/28 01:19:57;;;;;;;12.23;6.30;;;12.10;80.80;;;;;;10224605;29;20246;-89
2023/03/28 01:25:37;;;;;;;14.13;6.90;;;13.20;71.60;;;;;;10207226;29;20269;-89
2023/03/28 01:30:58;;;;;;;14.77;6.93;;;12.30;84.10;;;;;;10222984;29;20270;-89
2023/03/28 01:36:51;;;;;;;15.43;7.77;;;11.70;69.40;;;;;;10188270;29;20254;-89
2023/03/28 01:42:05;;;;;;;15.30;6.77;;;12.80;77.10;;;;;;10207012;29;20246;-89
2023/03/28 01:47:23;;;;;;;21.97;9.73;;;13.40;72.40;;;;;;10207821;29;20302;-89
2023/03/28 01:52:35;;;;;;;15.77;7.90;;;13.10;76.80;;;;;;10195036;29;21035;-89
2023/03/28 01:57:57;;;;;;;12.80;7.77;;;13.30;72.20;;;;;;10222363;29;20304;-89
2023/03/28 02:03:23;;;;;;;12.57;4.90;;;13.50;65.00;;;;;;10192573;29;20988;-88
2023/03/28 02:08:36;;;;;;;10.37;6.07;;;13.50;68.80;;;;;;10206427;29;20718;-89
2023/03/28 02:14:12;;;;;;;12.13;6.77;;;13.40;64.20;;;;;;10190906;29;20287;-89
2023/03/28 02:19:27;;;;;;;9.27;5.13;;;12.90;66.50;;;;;;10206608;29;20245;-89
2023/03/28 02:24:37;;;;;;;7.17;3.90;;;13.10;54.90;;;;;;10191040;29;20245;-89
2023/03/28 02:29:48;;;;;;;9.40;5.60;;;12.50;58.30;;;;;;10204638;29;20274;-89
2023/03/28 02:34:54;;;;;;;10.73;4.83;;;12.70;66.60;;;;;;10205573;29;20277;-89
2023/03/28 02:40:12;;;;;;;10.87;5.60;;;12.70;71.60;;;;;;10204879;29;20274;-89
2023/03/28 02:45:56;;;;;;;11.63;5.63;;;13.60;60.60;;;;;;10206494;29;20207;-88
2023/03/28 02:51:16;;;;;;;8.83;4.80;;;12.50;62.80;;;;;;10221486;29;20271;-89
2023/03/28 02:56:36;;;;;;;8.30;5.40;;;11.90;62.90;;;;;;10220730;29;20852;-89
2023/03/28 03:01:43;;;;;;;6.53;4.00;;;12.30;69.50;;;;;;10204593;29;20241;-89
2023/03/28 03:06:47;;;;;;;10.03;5.17;;;12.40;54.70;;;;;;10221081;29;20207;-89
2023/03/28 03:11:49;;;;;;;8.83;4.97;;;11.50;65.70;;;;;;10187184;29;20293;-89
2023/03/28 03:16:53;;;;;;;7.67;3.33;;;12.40;59.80;;;;;;10205981;29;20258;-89
2023/03/28 03:21:55;;;;;;;6.77;4.10;;;12.00;55.40;;;;;;10205755;29;20583;-89
2023/03/28 03:26:58;;;;;;;6.00;3.43;;;12.20;72.00;;;;;;10190588;29;20301;-90
2023/03/28 03:32:01;;;;;;;6.20;3.60;;;11.90;58.40;;;;;;10204192;29;20258;-89
2023/03/28 03:37:18;;;;;;;6.23;3.00;;;12.30;61.30;;;;;;10204330;29;20696;-89
2023/03/28 03:42:20;;;;;;;9.73;3.20;;;10.50;48.30;;;;;;10203554;29;20254;-90
2023/03/28 03:47:23;;;;;;;5.77;2.37;;;9.60;74.90;;;;;;10204119;29;20242;-89
2023/03/28 03:52:26;;;;;;;5.43;2.93;;;9.40;66.40;;;;;;10207435;29;20362;-88
2023/03/28 03:57:29;;;;;;;2.67;1.87;;;9.30;80.90;;;;;;10171797;29;20396;-89
2023/03/28 04:02:35;;;;;;;6.37;3.37;;;8.60;82.30;;;;;;10198676;28;20315;-89
2023/03/28 04:07:40;;;;;;;6.57;3.43;;;8.20;95.00;;;;;;10191943;29;20830;-89
2023/03/28 04:12:49;;;;;;;2.87;1.97;;;8.30;98.10;;;;;;10209886;29;20702;-89
2023/03/28 04:17:55;;;;;;;4.50;2.93;;;8.10;87.60;;;;;;10220895;29;20238;-89
2023/03/28 04:23:00;;;;;;;4.37;2.70;;;9.00;92.30;;;;;;10214998;28;20242;-89
2023/03/28 04:28:05;;;;;;;3.73;2.13;;;8.80;92.50;;;;;;10216838;29;20245;-89
2023/03/28 04:33:12;;;;;;;4.97;2.93;;;8.90;83.70;;;;;;10208980;29;20692;-91
2023/03/28 04:38:16;;;;;;;3.37;2.43;;;8.60;95.30;;;;;;10209695;29;20253;-89
2023/03/28 04:43:30;;;;;;;2.77;2.03;;;9.00;93.90;;;;;;10208248;29;20241;-88
2023/03/28 04:48:33;;;;;;;1.43;1.00;;;8.90;69.30;;;;;;10208275;29;20243;-88
2023/03/28 04:53:36;;;;;;;3.80;2.63;;;7.80;63.90;;;;;;10197436;29;20274;-88
2023/03/28 04:58:57;;;;;;;1.80;0.47;;;8.10;92.30;;;;;;10210687;29;20246;-89
2023/03/28 05:04:02;;;;;;;0.93;0.70;;;10.00;57.50;;;;;;10207879;29;20247;-88
2023/03/28 05:09:06;;;;;;;0.97;0.60;;;9.70;52.40;;;;;;10208819;29;20254;-89
2023/03/28 05:14:09;;;;;;;1.93;0.77;;;8.70;54.60;;;;;;10207443;29;20293;-92
2023/03/28 05:19:19;;;;;;;1.73;1.00;;;8.20;58.10;;;;;;10225072;28;20309;-89
2023/03/28 05:24:35;;;;;;;1.23;0.70;;;7.40;56.80;;;;;;10205087;29;20293;-89
2023/03/28 05:29:44;;;;;;;0.83;0.60;;;7.40;67.30;;;;;;10190911;29;20257;-91
2023/03/28 05:34:49;;;;;;;1.00;0.60;;;7.30;70.30;;;;;;10209211;29;20234;-89
2023/03/28 05:39:51;;;;;;;1.43;0.40;;;8.00;78.70;;;;;;10208566;29;20332;-89
2023/03/28 05:44:54;;;;;;;2.23;1.40;;;7.90;69.40;;;;;;10193739;29;20781;-89
2023/03/28 05:50:05;;;;;;;1.07;0.90;;;7.60;57.80;;;;;;10208397;29;20719;-89
2023/03/28 05:55:08;;;;;;;1.00;0.80;;;7.40;73.80;;;;;;10204522;29;20784;-89
2023/03/28 06:00:12;;;;;;;2.07;1.10;;;9.60;54.10;;;;;;10223411;29;20294;-90
2023/03/28 06:05:20;;;;;;;1.57;1.10;;;9.90;51.20;;;;;;10209339;29;20914;-89
2023/03/28 06:10:24;;;;;;;1.47;1.00;;;8.10;52.20;;;;;;10208529;29;20254;-90
2023/03/28 06:15:49;;;;;;;3.07;1.33;;;8.20;53.60;;;;;;10206981;29;20230;-89
2023/03/28 06:20:56;;;;;;;0.93;0.60;;;8.90;58.50;;;;;;10196300;29;20222;-88
2023/03/28 06:25:58;;;;;;;3.50;1.10;;;9.80;54.90;;;;;;10207084;29;20693;-88
2023/03/28 06:31:10;;;;;;;1.87;0.97;;;10.10;59.20;;;;;;10203422;29;20806;-88
2023/03/28 06:36:13;;;;;;;3.13;1.77;;;10.30;60.00;;;;;;10203989;29;20290;-87
2023/03/28 06:41:16;;;;;;;0.70;0.40;;;9.30;64.70;;;;;;10203999;29;20767;-87
2023/03/28 06:46:19;;;;;;;2.23;1.40;;;10.50;93.90;;;;;;10208088;29;20262;-87
2023/03/28 06:51:22;;;;;;;1.47;1.03;;;10.80;92.50;;;;;;10240104;29;20675;-87
2023/03/28 06:56:25;;;;;;;1.13;0.97;;;10.70;71.70;;;;;;10202078;29;20230;-88
2023/03/28 07:01:30;;;;;;;2.17;1.63;;;10.50;99.40;;;;;;10193664;29;20227;-88
2023/03/28 07:06:43;;;;;;;2.03;0.90;;;10.40;87.90;;;;;;10180486;29;20239;-88
2023/03/28 07:11:45;;;;;;;2.30;1.40;;;9.00;99.90;;;;;;10200357;29;20787;-87
2023/03/28 07:16:48;;;;;;;3.50;1.67;;;9.50;99.90;;;;;;10218618;29;20223;-88
2023/03/28 07:21:52;;;;;;;3.53;1.70;;;8.30;96.40;;;;;;10204260;29;20280;-88
2023/03/28 07:27:02;;;;;;;1.30;1.00;;;8.10;91.50;;;;;;10190438;29;20247;-88
2023/03/28 07:32:19;;;;;;;1.80;1.30;;;8.30;99.90;;;;;;10210149;29;20261;-89
2023/03/28 07:37:21;;;;;;;1.00;0.90;;;8.30;98.20;;;;;;10211633;29;20329;-89
2023/03/28 07:42:40;;;;;;;2.77;1.50;;;7.90;99.90;;;;;;10211048;29;20275;-89
2023/03/28 07:47:43;;;;;;;3.30;1.30;;;7.00;97.20;;;;;;10212278;29;20285;-89
2023/03/28 07:52:46;;;;;;;2.13;1.67;;;7.90;99.90;;;;;;10212618;29;20703;-90
2023/03/28 07:57:49;;;;;;;1.73;1.10;;;8.20;99.90;;;;;;10201264;29;20297;-89
2023/03/28 08:03:04;;;;;;;1.73;1.63;;;9.40;99.90;;;;;;10224009;28;20238;-89
2023/03/28 08:08:07;;;;;;;2.00;1.07;;;9.20;99.90;;;;;;10226500;29;20274;-89
2023/03/28 08:13:10;;;;;;;2.40;2.20;;;9.70;99.90;;;;;;10208755;29;20282;-89
2023/03/28 08:18:19;;;;;;;2.23;2.00;;;9.20;97.60;;;;;;10199827;29;20309;-90
2023/03/28 08:23:22;;;;;;;1.77;1.30;;;9.30;99.80;;;;;;10209313;29;20242;-89
2023/03/28 08:28:44;;;;;;;0.80;0.57;;;5.60;99.90;;;;;;10211715;28;20251;-89
2023/03/28 08:33:52;;;;;;;0.97;0.60;;;4.10;99.90;;;;;;10206071;29;20329;-89
2023/03/28 08:39:03;;;;;;;1.00;0.70;;;3.70;99.90;;;;;;10235154;29;20269;-88
2023/03/28 08:44:16;;;;;;;1.43;1.00;;;3.80;99.90;;;;;;10219237;29;20246;-89
2023/03/28 08:49:19;;;;;;;2.57;1.10;;;4.10;99.90;;;;;;10216208;29;20630;-89
2023/03/28 08:54:42;;;;;;;2.63;1.23;;;5.50;99.90;;;;;;10209253;29;20338;-88
2023/03/28 08:59:52;;;;;;;2.90;1.90;;;5.70;99.90;;;;;;10211372;29;20242;-88
2023/03/28 09:04:57;;;;;;;1.27;0.90;;;4.50;96.30;;;;;;10217271;29;20612;-89
2023/03/28 09:10:35;;;;;;;3.87;2.53;;;5.90;99.90;;;;;;10197638;29;20394;-89
2023/03/28 09:16:08;;;;;;;1.67;1.53;;;5.60;99.90;;;;;;10246662;29;20642;-90
2023/03/28 09:21:53;;;;;;;7.23;4.13;;;7.10;99.90;;;;;;10223258;29;20215;-89
2023/03/28 09:27:31;;;;;;;2.43;1.87;;;6.60;99.90;;;;;;10207001;29;20255;-89
2023/03/28 09:32:38;;;;;;;2.00;1.27;;;5.90;98.20;;;;;;10207412;29;20309;-89
2023/03/28 09:37:45;;;;;;;1.10;0.80;;;4.90;99.90;;;;;;10206785;29;20274;-89
2023/03/28 09:42:56;;;;;;;2.17;0.87;;;5.60;99.90;;;;;;10185322;29;20251;-88
2023/03/28 09:48:20;;;;;;;1.57;1.40;;;7.20;99.90;;;;;;10198607;29;20243;-89
2023/03/28 09:53:35;;;;;;;1.13;0.70;;;6.10;64.90;;;;;;10206264;29;20255;-89
2023/03/28 09:58:52;;;;;;;17.13;8.57;;;8.70;99.90;;;;;;10198045;29;20246;-89
2023/03/28 10:04:30;;;;;;;7.30;2.53;;;8.30;94.30;;;;;;10206010;29;20276;-89
2023/03/28 10:09:50;;;;;;;6.70;2.57;;;8.60;99.30;;;;;;10205633;29;20828;-90
2023/03/28 10:14:53;;;;;;;11.73;2.90;;;7.50;59.60;;;;;;10173402;29;20946;-89
2023/03/28 10:20:20;;;;;;;6.13;4.00;;;6.60;76.90;;;;;;10206166;29;20235;-89
2023/03/28 10:25:36;;;;;;;5.60;2.10;;;5.60;55.00;;;;;;10222248;28;20297;-89
2023/03/28 10:30:40;;;;;;;1.03;0.90;;;5.30;59.10;;;;;;10204922;29;20255;-89
2023/03/28 10:35:53;;;;;;;9.03;3.37;;;4.70;96.00;;;;;;10206505;29;20246;-89
2023/03/28 10:41:01;;;;;;;5.70;2.37;;;5.00;94.00;;;;;;10205494;29;20248;-88
2023/03/28 10:46:35;;;;;;;7.10;2.70;;;5.20;99.90;;;;;;10193852;29;20258;-88
2023/03/28 10:52:00;;;;;;;2.07;1.00;;;4.90;82.80;;;;;;10203187;29;20266;-90
2023/03/28 10:57:26;;;;;;;80.77;42.10;;;4.50;99.90;;;;;;10218730;29;20251;-89
2023/03/28 11:02:50;;;;;;;16.03;4.50;;;4.90;97.70;;;;;;10203173;29;20241;-89
2023/03/28 11:08:23;;;;;;;5.57;1.97;;;4.20;95.80;;;;;;10199440;29;20290;-89
2023/03/28 11:14:06;;;;;;;7.03;2.73;;;4.50;99.90;;;;;;10204306;29;20246;-89
2023/03/28 11:19:19;;;;;;;3.07;1.50;;;4.70;84.50;;;;;;10200399;29;20309;-88
2023/03/28 11:25:01;;;;;;;6.80;3.67;;;6.80;99.90;;;;;;10201007;29;20269;-89
2023/03/28 11:30:32;;;;;;;4.00;1.37;;;7.20;98.00;;;;;;10202740;29;20259;-88
2023/03/28 11:35:57;;;;;;;5.57;5.07;;;5.30;93.10;;;;;;10203072;29;20698;-88
2023/03/28 11:41:14;;;;;;;13.30;3.60;;;4.10;91.80;;;;;;10196719;29;20698;-88
2023/03/28 11:46:58;;;;;;;2.30;1.20;;;4.50;99.40;;;;;;10205607;29;20235;-88
2023/03/28 11:52:16;;;;;;;6.67;2.27;;;4.20;72.60;;;;;;10197561;29;20262;-89
2023/03/28 11:57:38;;;;;;;7.00;2.30;;;4.40;87.90;;;;;;10202357;29;20262;-89
2023/03/28 12:02:51;;;;;;;1.10;0.93;;;4.80;60.70;;;;;;10203161;29;20294;-89
2023/03/28 12:07:58;;;;;;;3.50;1.43;;;5.70;99.90;;;;;;10216603;28;20247;-89
2023/03/28 12:13:13;;;;;;;3.10;1.37;;;5.10;52.50;;;;;;10200336;29;20270;-90
2023/03/28 12:18:56;;;;;;;0.87;0.70;;;7.20;69.60;;;;;;10208810;29;20235;-88
2023/03/28 12:24:43;;;;;;;1.97;0.80;;;8.50;68.60;;;;;;10195596;29;20246;-89
2023/03/28 12:30:15;;;;;;;3.53;1.30;;;8.00;43.60;;;;;;10206988;29;20243;-84
2023/03/28 12:35:33;;;;;;;2.30;1.37;;;6.70;51.80;;;;;;10208490;29;20749;-85
2023/03/28 12:40:48;;;;;;;1.47;1.20;;;7.20;39.20;;;;;;10209445;29;20266;-85
2023/03/28 12:46:00;;;;;;;2.33;1.37;;;7.40;34.90;;;;;;10224260;29;20681;-85
2023/03/28 12:51:21;;;;;;;1.60;1.10;;;6.60;38.50;;;;;;10209745;29;20311;-85
2023/03/28 12:56:24;;;;;;;0.70;0.60;;;6.30;29.00;;;;;;10178719;29;20678;-85
2023/03/28 13:01:49;;;;;;;0.97;0.70;;;5.20;32.70;;;;;;10223216;29;20879;-86
2023/03/28 13:07:29;;;;;;;1.60;0.60;;;4.70;28.80;;;;;;10205364;29;20289;-85
2023/03/28 13:12:59;;;;;;;2.43;0.70;;;5.10;64.70;;;;;;10208270;29;20262;-85
2023/03/28 13:18:20;;;;;;;1.07;0.83;;;4.70;38.60;;;;;;10207335;29;20331;-85
2023/03/28 13:23:46;;;;;;;0.93;0.57;;;4.20;31.00;;;;;;10205587;29;20293;-85
2023/03/28 13:28:52;;;;;;;2.00;0.67;;;4.90;36.10;;;;;;10198281;29;20286;-85
2023/03/28 13:33:59;;;;;;;1.10;0.47;;;5.20;43.80;;;;;;10202883;29;20310;-84
2023/03/28 13:39:17;;;;;;;1.37;0.97;;;5.40;41.40;;;;;;10207156;29;20783;-84
2023/03/28 13:44:38;;;;;;;5.40;1.03;;;4.60;23.50;;;;;;10193315;29;20231;-86
2023/03/28 13:49:50;;;;;;;1.40;1.30;;;6.40;20.60;;;;;;10207130;29;20289;-86
2023/03/28 13:55:00;;;;;;;1.43;0.70;;;4.90;24.10;;;;;;10208668;29;20257;-87
2023/03/28 14:00:05;;;;;;;2.07;1.00;;;4.30;22.00;;;;;;10207897;29;20245;-87
2023/03/28 14:05:32;;;;;;;4.57;1.30;;;3.70;22.40;;;;;;10208243;29;20239;-86
2023/03/28 14:10:39;;;;;;;2.30;1.50;;;3.40;23.20;;;;;;10207802;29;20258;-86
2023/03/28 14:15:43;;;;;;;2.10;1.10;;;3.10;23.10;;;;;;10206847;29;20259;-86
2023/03/28 14:20:45;;;;;;;6.77;1.00;;;3.00;24.30;;;;;;10206895;29;20305;-86
2023/03/28 14:25:48;;;;;;;2.97;1.53;;;3.30;22.30;;;;;;10205193;29;20243;-86
2023/03/28 14:30:51;;;;;;;1.20;0.80;;;3.40;23.80;;;;;;10203750;29;20226;-86
2023/03/28 14:36:04;;;;;;;12.13;10.87;;;3.50;20.90;;;;;;10205728;29;20230;-86
2023/03/28 14:41:11;;;;;;;2.03;1.83;;;3.70;22.60;;;;;;10204965;29;20230;-86
2023/03/28 14:46:15;;;;;;;1.37;1.00;;;3.70;20.90;;;;;;10205512;29;20293;-86
2023/03/28 14:51:21;;;;;;;1.87;1.00;;;3.50;18.30;;;;;;10206176;29;20318;-86
2023/03/28 14:56:26;;;;;;;1.73;1.00;;;3.50;18.60;;;;;;10206063;29;20285;-86
2023/03/28 15:01:30;;;;;;;1.27;0.90;;;3.60;20.80;;;;;;10205578;29;20289;-86
2023/03/28 15:06:38;;;;;;;1.90;1.10;;;3.70;17.50;;;;;;10203536;29;20235;-86
2023/03/28 15:11:42;;;;;;;1.87;1.03;;;3.70;18.80;;;;;;10204400;29;20298;-86
2023/03/28 15:16:46;;;;;;;3.07;1.60;;;4.30;18.90;;;;;;10203670;29;20282;-85
2023/03/28 15:21:56;;;;;;;23.23;12.63;;;4.40;17.50;;;;;;10204632;29;20294;-82
2023/03/28 15:27:00;;;;;;;1.83;1.00;;;4.20;18.80;;;;;;10204585;29;20235;-82
2023/03/28 15:32:16;;;;;;;8.00;3.43;;;4.00;19.10;;;;;;10204601;29;20259;-83
2023/03/28 15:37:21;;;;;;;2.67;1.93;;;3.70;19.60;;;;;;10194372;29;20702;-83
2023/03/28 15:42:33;;;;;;;4.93;1.70;;;3.80;17.60;;;;;;10204367;29;20242;-83
2023/03/28 15:47:36;;;;;;;4.83;1.63;;;3.50;17.70;;;;;;10210920;29;20285;-83
2023/03/28 15:52:42;;;;;;;8.20;3.37;;;3.50;18.70;;;;;;10212800;29;20648;-83
2023/03/28 15:57:46;;;;;;;5.10;2.10;;;3.70;19.20;;;;;;10212702;29;20676;-83
2023/03/28 16:02:49;;;;;;;10.17;4.97;;;3.70;17.80;;;;;;10212547;29;20242;-83
2023/03/28 16:07:53;;;;;;;39.83;20.67;;;3.20;16.50;;;;;;10225054;29;20310;-83
2023/03/28 16:12:56;;;;;;;111.80;51.83;;;3.10;19.30;;;;;;10212706;29;20258;-83
2023/03/28 16:18:21;;;;;;;37.37;10.10;;;3.10;18.20;;;;;;10203698;29;20230;-83
2023/03/28 16:23:30;;;;;;;12.07;4.33;;;2.90;18.60;;;;;;10210293;29;20289;-83
2023/03/28 16:28:34;;;;;;;29.10;13.27;;;2.90;18.20;;;;;;10211391;29;20254;-84
2023/03/28 16:33:36;;;;;;;49.87;21.83;;;2.80;17.50;;;;;;10208481;29;20314;-83
2023/03/28 16:38:39;;;;;;;21.93;9.10;;;2.80;19.70;;;;;;9873054;29;9999698;-83
2023/03/28 16:43:41;;;;;;;3.53;2.20;;;2.70;19.60;;;;;;10208394;29;20375;-83
2023/03/28 16:48:44;;;;;;;7.87;3.30;;;2.60;20.50;;;;;;10206684;29;20665;-83
2023/03/28 16:53:47;;;;;;;4.43;2.30;;;2.40;19.40;;;;;;10235376;29;20312;-84
2023/03/28 16:58:49;;;;;;;4.47;2.63;;;2.30;19.70;;;;;;10210712;29;20227;-83
2023/03/28 17:03:53;;;;;;;5.90;3.53;;;2.30;19.60;;;;;;10206524;29;20266;-83
2023/03/28 17:08:57;;;;;;;5.10;3.10;;;2.20;20.70;;;;;;10208767;29;20238;-83
2023/03/28 17:14:00;;;;;;;1.90;1.53;;;2.00;22.10;;;;;;10209390;29;20251;-83
2023/03/28 17:19:02;;;;;;;4.13;2.53;;;1.80;22.20;;;;;;10208974;29;20242;-83
2023/03/28 17:24:10;;;;;;;3.97;2.87;;;1.70;23.20;;;;;;10206501;29;20263;-83
2023/03/28 17:29:14;;;;;;;3.37;2.57;;;1.60;24.30;;;;;;10207381;29;20263;-83
2023/03/28 17:34:17;;;;;;;4.57;2.60;;;;;;;;;;10208397;29;20314;-83
2023/03/28 17:39:21;;;;;;;6.13;3.43;;;1.30;25.70;;;;;;10202036;29;20262;-83
2023/03/28 17:44:25;;;;;;;7.90;3.33;;;1.20;26.80;;;;;;10207409;29;20242;-83
2023/03/28 17:49:27;;;;;;;6.77;4.30;;;1.10;27.60;;;;;;10207854;29;20333;-83
2023/03/28 17:54:30;;;;;;;9.23;5.23;;;1.00;28.40;;;;;;10205227;29;20301;-83
2023/03/28 17:59:32;;;;;;;11.10;6.43;;;0.90;29.60;;;;;;10207180;29;20266;-84
2023/03/28 18:04:35;;;;;;;11.00;6.67;;;0.70;31.10;;;;;;10206292;29;20242;-83
2023/03/28 18:09:38;;;;;;;11.23;6.80;;;0.60;32.60;;;;;;10207086;29;20242;-83
2023/03/28 18:14:43;;;;;;;11.60;6.63;;;0.50;34.00;;;;;;10206893;29;20270;-84
2023/03/28 18:19:46;;;;;;;15.53;7.73;;;0.30;35.80;;;;;;10208079;29;20234;-83
2023/03/28 18:24:48;;;;;;;12.77;7.50;;;0.10;38.20;;;;;;10206043;29;20633;-81
2023/03/28 18:29:51;;;;;;;19.63;10.47;;;-0.50;55.80;;;;;;10200375;29;20239;-81
2023/03/28 18:34:54;;;;;;;30.30;14.97;;;-0.90;76.60;;;;;;10205066;29;20262;-83
2023/03/28 18:39:57;;;;;;;52.03;23.50;;;-1.30;87.70;;;;;;9860157;29;9999905;-82
2023/03/28 18:45:00;;;;;;;34.53;19.20;;;-1.20;80.00;;;;;;10201577;29;20326;-82
2023/03/28 18:50:04;;;;;;;33.73;19.03;;;-1.20;77.00;;;;;;10197339;29;20658;-82
2023/03/28 18:55:08;;;;;;;26.90;13.97;;;-1.10;74.10;;;;;;10201757;29;20724;-82
2023/03/28 19:00:16;;;;;;;18.77;11.30;;;-1.00;72.90;;;;;;10201644;29;20290;-82
2023/03/28 19:05:19;;;;;;;14.73;7.50;;;-1.00;71.50;;;;;;10203555;29;20234;-82
2023/03/28 19:10:21;;;;;;;16.77;8.50;;;-1.10;70.20;;;;;;10201147;29;20297;-82
2023/03/28 19:15:24;;;;;;;17.77;9.00;;;-1.10;70.90;;;;;;10200647;29;20254;-82
2023/03/28 19:20:27;;;;;;;16.77;11.37;;;-1.30;74.00;;;;;;10202107;29;20239;-82
2023/03/28 19:25:30;;;;;;;27.07;13.83;;;-1.60;80.20;;;;;;10201569;29;20239;-82
2023/03/28 19:30:37;;;;;;;27.60;13.47;;;;;;;;;;10203305;29;20239;-82
2023/03/28 19:35:41;;;;;;;35.93;21.07;;;-2.00;92.20;;;;;;10203662;29;20246;-82
2023/03/28 19:40:43;;;;;;;29.37;15.83;;;-2.10;91.20;;;;;;10196377;29;20264;-81
2023/03/28 19:45:47;;;;;;;33.73;16.50;;;-1.90;90.00;;;;;;10204758;29;20262;-83
2023/03/28 19:50:50;;;;;;;45.83;23.93;;;-1.90;90.70;;;;;;10205138;29;20238;-82
2023/03/28 19:56:00;;;;;;;69.90;35.20;;;-1.70;90.40;;;;;;10204792;29;20298;-82
2023/03/28 20:01:03;;;;;;;90.47;42.80;;;-1.70;90.10;;;;;;10204240;29;20246;-83
2023/03/28 20:06:10;;;;;;;92.00;44.73;;;-2.00;93.30;;;;;;10204557;29;20657;-83
2023/03/28 20:11:13;;;;;;;94.73;45.70;;;-2.40;97.70;;;;;;10203481;29;20242;-82
2023/03/28 20:16:16;;;;;;;94.37;44.87;;;-2.60;99.90;;;;;;10204350;29;20258;-81
2023/03/28 20:21:18;;;;;;;111.57;51.43;;;-2.90;99.90;;;;;;10203909;29;20231;-81
2023/03/28 20:26:25;;;;;;;98.97;48.10;;;-3.10;99.90;;;;;;10203498;29;20286;-81
2023/03/28 20:31:28;;;;;;;91.20;44.40;;;-3.20;99.90;;;;;;10206047;29;20301;-82
2023/03/28 20:36:33;;;;;;;79.13;38.17;;;-3.30;99.90;;;;;;10207994;29;20262;-82
2023/03/28 20:41:36;;;;;;;91.67;39.10;;;-3.40;99.90;;;;;;10209595;29;20622;-83
2023/03/28 20:46:39;;;;;;;67.23;32.47;;;-3.60;99.90;;;;;;10210129;29;20262;-83
2023/03/28 20:51:42;;;;;;;67.57;32.40;;;-3.70;99.90;;;;;;10210492;29;20242;-83
2023/03/28 20:56:45;;;;;;;83.20;38.17;;;-3.80;99.90;;;;;;10209681;29;20254;-82
2023/03/28 21:01:48;;;;;;;84.07;36.37;;;-4.10;99.90;;;;;;10206838;29;20235;-83
2023/03/28 21:06:50;;;;;;;97.57;44.73;;;-4.10;99.90;;;;;;10210367;29;20294;-82
2023/03/28 21:11:53;;;;;;;88.80;39.13;;;-4.10;99.90;;;;;;10209957;29;20688;-83
2023/03/28 21:16:56;;;;;;;95.47;40.03;;;-4.40;99.90;;;;;;10208724;29;20607;-82
2023/03/28 21:22:00;;;;;;;78.57;38.03;;;-4.40;99.90;;;;;;10209407;29;20282;-83
2023/03/28 21:27:03;;;;;;;68.93;34.00;;;-4.50;99.90;;;;;;10207987;29;20297;-82
2023/03/28 21:32:05;;;;;;;65.33;33.33;;;-4.50;99.90;;;;;;10183012;29;20239;-82
2023/03/28 21:37:08;;;;;;;62.80;29.83;;;-4.40;99.90;;;;;;10193750;29;20723;-82
2023/03/28 21:42:11;;;;;;;57.37;25.37;;;-4.40;99.90;;;;;;10207151;29;20291;-83
2023/03/28 21:47:13;;;;;;;50.87;25.07;;;-4.50;99.90;;;;;;10207778;29;20718;-83
2023/03/28 21:52:16;;;;;;;47.93;22.90;;;-4.40;99.90;;;;;;10208247;29;20246;-83
2023/03/28 21:57:18;;;;;;;75.50;34.00;;;-4.50;99.90;;;;;;10207051;29;20332;-83
2023/03/28 22:02:21;;;;;;;76.23;35.27;;;-4.40;99.90;;;;;;10201717;29;20267;-83
2023/03/28 22:07:24;;;;;;;92.17;35.47;;;-4.50;99.90;;;;;;10206069;29;20294;-83
2023/03/28 22:12:30;;;;;;;61.47;29.10;;;-4.70;99.90;;;;;;10205573;29;20219;-83
2023/03/28 22:17:35;;;;;;;66.77;30.07;;;-4.90;99.90;;;;;;10207344;29;20286;-83
2023/03/28 22:22:43;;;;;;;70.67;34.50;;;-5.00;99.90;;;;;;10211896;29;20286;-83
2023/03/28 22:27:46;;;;;;;79.87;35.33;;;-4.90;99.90;;;;;;10207895;29;20282;-83
2023/03/28 22:32:48;;;;;;;80.37;38.00;;;-4.90;99.90;;;;;;10207847;29;20238;-83
2023/03/28 22:37:51;;;;;;;87.53;41.47;;;-4.90;99.90;;;;;;10205691;29;20714;-83
2023/03/28 22:42:54;;;;;;;99.37;43.87;;;-4.90;99.90;;;;;;10206912;29;20241;-83
2023/03/28 22:47:58;;;;;;;91.63;40.90;;;-5.10;99.90;;;;;;10206282;29;20680;-83
2023/03/28 22:53:03;;;;;;;89.77;42.97;;;-5.00;99.90;;;;;;10205708;29;20696;-83
2023/03/28 22:58:06;;;;;;;121.50;52.80;;;-5.20;99.90;;;;;;10205610;29;20246;-83
2023/03/28 23:03:09;;;;;;;106.93;48.07;;;-5.10;99.90;;;;;;10206512;29;20242;-83
2023/03/28 23:08:11;;;;;;;103.33;47.50;;;-5.00;99.90;;;;;;10206129;29;20234;-83
2023/03/28 23:13:15;;;;;;;106.23;47.00;;;-5.10;99.90;;;;;;10205597;29;20294;-83
2023/03/28 23:18:18;;;;;;;95.93;41.40;;;-5.20;99.90;;;;;;10206030;29;20303;-83
2023/03/28 23:23:20;;;;;;;81.77;37.93;;;-5.10;99.90;;;;;;10230887;29;20550;-83
2023/03/28 23:28:23;;;;;;;73.97;37.10;;;-5.30;99.90;;;;;;10206028;29;20728;-83
2023/03/28 23:33:25;;;;;;;83.23;37.03;;;-5.40;99.90;;;;;;10205493;29;20246;-83
2023/03/28 23:38:28;;;;;;;69.10;35.07;;;-5.40;99.90;;;;;;10205479;29;20262;-83
2023/03/28 23:43:31;;;;;;;76.37;33.13;;;-5.40;99.90;;;;;;10206382;29;20245;-83
2023/03/28 23:48:35;;;;;;;71.27;34.37;;;-5.40;99.90;;;;;;10205719;29;20246;-84
2023/03/28 23:53:37;;;;;;;67.60;33.03;;;-5.40;99.90;;;;;;10205643;29;20292;-84
2023/03/28 23:58:40;;;;;;;68.00;32.70;;;-5.40;99.90;;;;;;10205266;29;20238;-84
